Terminal Aerodrome Forecast
Issued by NWS Cleveland, OH

Home | Current Version | Previous Version | Text Only | Print | Product List | Glossary Off
Versions: 1 2 3 4 5 6 7 8 9 10 11 12 13 14 15 16 17 18 19 20 21 22 23 24 25 26

419
FTUS41 KCLE 100815 AAA
TAFERI
TAF AMD
KERI 100815Z 1008/1106 26012G20KT P6SM VCSH OVC015
      TEMPO 1008/1009 3/4SM -SN BKN006
     FM101700 23016G28KT 2SM -SN OVC015
     FM102100 23015G25KT 6SM -SHSN OVC015
     FM110100 25012G20KT 1/2SM SN OVC008
     FM110400 27012G18KT 5SM -SHSN OVC015=

USA.gov is the U.S. government's official web portal to all federal, state and local government web resources and services.